createdAt,value
2022-09-27T00:00:04.715Z,36.63
2022-09-27T00:00:34.740Z,36.64
2022-09-27T00:01:04.866Z,36.60
2022-09-27T00:01:34.870Z,36.68
2022-09-27T00:02:05.040Z,36.60
2022-09-27T00:02:35.043Z,36.60
2022-09-27T00:03:05.128Z,36.67
2022-09-27T00:03:35.029Z,36.67
2022-09-27T00:04:05.045Z,36.65
2022-09-27T00:04:35.069Z,36.64
2022-09-27T00:05:05.080Z,36.65
2022-09-27T00:05:35.103Z,36.60
2022-09-27T00:06:05.124Z,36.57
2022-09-27T00:06:39.930Z,36.59
2022-09-27T00:07:05.180Z,36.59
2022-09-27T00:07:35.195Z,36.56
2022-09-27T00:08:05.219Z,36.67
2022-09-27T00:08:35.232Z,36.61
2022-09-27T00:09:05.247Z,36.60
2022-09-27T00:09:35.261Z,36.60
2022-09-27T00:10:05.277Z,36.60
2022-09-27T00:10:35.292Z,36.60
2022-09-27T00:11:05.310Z,36.54
2022-09-27T00:11:35.329Z,36.49
2022-09-27T00:12:05.363Z,36.54
2022-09-27T00:12:35.387Z,36.51
2022-09-27T00:13:05.426Z,36.51
2022-09-27T00:13:35.422Z,36.52
2022-09-27T00:14:05.445Z,36.52
2022-09-27T00:14:35.462Z,36.54
2022-09-27T00:15:05.485Z,36.46
2022-09-27T00:15:35.548Z,36.49
2022-09-27T00:16:05.636Z,36.51
2022-09-27T00:16:35.631Z,36.47
2022-09-27T00:17:05.646Z,36.45
2022-09-27T00:17:35.671Z,36.47
2022-09-27T00:18:05.687Z,36.45
2022-09-27T00:18:35.707Z,36.45
2022-09-27T00:19:05.734Z,36.48
2022-09-27T00:19:35.741Z,36.47
2022-09-27T00:20:05.758Z,36.38
2022-09-27T00:20:35.773Z,36.41
2022-09-27T00:21:05.797Z,36.44
2022-09-27T00:21:35.817Z,36.44
2022-09-27T00:22:05.838Z,36.44
2022-09-27T00:22:35.852Z,36.42
2022-09-27T00:23:05.866Z,36.38
2022-09-27T00:23:35.903Z,36.42
2022-09-27T00:24:05.907Z,36.40
2022-09-27T00:24:35.942Z,36.40
2022-09-27T00:25:05.955Z,36.38
2022-09-27T00:25:35.974Z,36.36
2022-09-27T00:26:05.985Z,36.40
2022-09-27T00:26:36.004Z,36.37
2022-09-27T00:27:06.039Z,36.38
2022-09-27T00:27:36.059Z,36.38
2022-09-27T00:28:06.071Z,36.38
2022-09-27T00:28:36.110Z,36.37
2022-09-27T00:29:06.199Z,36.34
2022-09-27T00:29:36.302Z,36.38
2022-09-27T00:30:06.406Z,36.38
2022-09-27T00:30:36.575Z,36.39
2022-09-27T00:31:06.600Z,36.36
2022-09-27T00:31:36.680Z,36.41
2022-09-27T00:32:06.665Z,36.40
2022-09-27T00:32:36.773Z,36.37
2022-09-27T00:33:06.875Z,36.41
2022-09-27T00:33:36.982Z,36.41
2022-09-27T00:34:07.087Z,36.38
2022-09-27T00:34:37.196Z,36.45
2022-09-27T00:35:07.300Z,36.38
2022-09-27T00:35:37.404Z,36.41
2022-09-27T00:36:07.512Z,36.37
2022-09-27T00:36:37.617Z,36.38
2022-09-27T00:37:07.721Z,36.38
2022-09-27T00:37:37.830Z,36.35
2022-09-27T00:38:07.933Z,36.38
2022-09-27T00:38:38.050Z,36.34
2022-09-27T00:39:08.136Z,36.37
2022-09-27T00:39:38.089Z,36.34
2022-09-27T00:40:08.109Z,36.37
2022-09-27T00:40:38.180Z,36.34
2022-09-27T00:41:08.292Z,36.37
2022-09-27T00:41:38.215Z,36.31
2022-09-27T00:42:08.240Z,36.34
2022-09-27T00:42:38.262Z,36.39
2022-09-27T00:43:08.287Z,36.38
2022-09-27T00:43:38.316Z,36.41
2022-09-27T00:44:08.360Z,36.45
2022-09-27T00:44:38.347Z,36.43
2022-09-27T00:45:08.356Z,36.48
2022-09-27T00:45:38.377Z,36.49
2022-09-27T00:46:08.482Z,36.47
2022-09-27T00:46:38.547Z,36.50
2022-09-27T00:47:08.581Z,36.47
2022-09-27T00:47:38.597Z,36.50
2022-09-27T00:48:08.614Z,36.50
2022-09-27T00:48:38.631Z,36.54
2022-09-27T00:49:08.739Z,36.60
2022-09-27T00:49:38.664Z,36.52
2022-09-27T00:50:08.682Z,36.51
2022-09-27T00:50:38.705Z,36.54
2022-09-27T00:51:08.719Z,36.56
2022-09-27T00:51:38.745Z,36.57
2022-09-27T00:52:08.765Z,36.57
2022-09-27T00:52:38.788Z,36.59
2022-09-27T00:53:08.812Z,36.55
2022-09-27T00:53:38.830Z,36.57
2022-09-27T00:54:08.849Z,36.61
2022-09-27T00:54:38.870Z,36.57
2022-09-27T00:55:08.879Z,36.58
2022-09-27T00:55:38.904Z,36.66
2022-09-27T00:56:08.920Z,36.69
2022-09-27T00:56:38.943Z,36.69
2022-09-27T00:57:08.961Z,36.65
2022-09-27T00:57:38.983Z,36.65
2022-09-27T00:58:09.005Z,36.69
2022-09-27T00:58:39.032Z,36.66
2022-09-27T00:59:09.128Z,36.68
2022-09-27T00:59:39.081Z,36.65
2022-09-27T01:00:09.082Z,36.62
2022-09-27T01:00:39.103Z,36.61
2022-09-27T01:01:09.185Z,36.59
2022-09-27T01:01:39.241Z,36.59
2022-09-27T01:02:09.319Z,36.64
2022-09-27T01:02:39.434Z,36.58
2022-09-27T01:03:09.437Z,36.54
2022-09-27T01:03:39.454Z,36.56
2022-09-27T01:04:09.472Z,36.57
2022-09-27T01:04:39.491Z,36.53
2022-09-27T01:05:09.505Z,36.50
2022-09-27T01:05:39.592Z,36.45
2022-09-27T01:06:09.608Z,36.57
2022-09-27T01:06:39.636Z,36.52
2022-09-27T01:07:09.649Z,36.53
2022-09-27T01:07:39.665Z,36.51
2022-09-27T01:08:09.688Z,36.49
2022-09-27T01:08:39.707Z,36.47
2022-09-27T01:09:09.808Z,36.50
2022-09-27T01:09:39.793Z,36.44
2022-09-27T01:10:09.809Z,36.44
2022-09-27T01:10:39.826Z,36.47
2022-09-27T01:11:09.841Z,36.38
2022-09-27T01:11:39.861Z,36.42
2022-09-27T01:12:09.876Z,36.47
2022-09-27T01:12:39.889Z,36.41
2022-09-27T01:13:09.909Z,36.38
2022-09-27T01:13:39.923Z,36.38
2022-09-27T01:14:09.940Z,36.38
2022-09-27T01:14:39.950Z,36.37
2022-09-27T01:15:09.993Z,36.41
2022-09-27T01:15:40.141Z,36.45
2022-09-27T01:16:10.160Z,36.36
2022-09-27T01:16:40.161Z,36.40
2022-09-27T01:17:10.185Z,36.34
2022-09-27T01:17:40.200Z,36.33
2022-09-27T01:18:10.223Z,36.36
2022-09-27T01:18:40.244Z,36.32
2022-09-27T01:19:10.294Z,36.30
2022-09-27T01:19:40.314Z,36.30
2022-09-27T01:20:10.322Z,36.29
2022-09-27T01:20:40.339Z,36.33
2022-09-27T01:21:10.359Z,36.33
2022-09-27T01:21:40.373Z,36.26
2022-09-27T01:22:10.404Z,36.33
2022-09-27T01:22:40.423Z,36.30
2022-09-27T01:23:10.444Z,36.29
2022-09-27T01:23:40.463Z,36.30
2022-09-27T01:24:10.480Z,36.37
2022-09-27T01:24:40.493Z,36.33
2022-09-27T01:25:10.506Z,36.34
2022-09-27T01:25:40.522Z,36.36
2022-09-27T01:26:10.540Z,36.29
2022-09-27T01:26:40.553Z,36.29
2022-09-27T01:27:10.584Z,36.30
2022-09-27T01:27:40.616Z,36.31
2022-09-27T01:28:10.634Z,36.33
2022-09-27T01:28:40.637Z,36.37
2022-09-27T01:29:10.790Z,36.34
2022-09-27T01:29:40.855Z,36.28
2022-09-27T01:30:10.966Z,36.40
2022-09-27T01:30:41.124Z,36.31
2022-09-27T01:31:14.122Z,36.38
2022-09-27T01:31:41.093Z,36.36
2022-09-27T01:32:11.211Z,36.31
2022-09-27T01:32:41.321Z,36.34
2022-09-27T01:33:11.434Z,36.34
2022-09-27T01:33:41.541Z,36.30
2022-09-27T01:34:11.642Z,36.35
2022-09-27T01:34:41.753Z,36.33
2022-09-27T01:35:11.862Z,36.35
2022-09-27T01:35:41.968Z,36.33
2022-09-27T01:36:12.076Z,36.33
2022-09-27T01:36:42.183Z,36.35
2022-09-27T01:37:12.294Z,36.36
2022-09-27T01:37:42.399Z,36.42
2022-09-27T01:38:12.505Z,36.39
2022-09-27T01:38:42.626Z,36.42
2022-09-27T01:39:12.643Z,36.51
2022-09-27T01:39:42.666Z,36.40
2022-09-27T01:40:12.736Z,36.44
2022-09-27T01:40:42.821Z,36.46
2022-09-27T01:41:12.827Z,36.46
2022-09-27T01:41:42.847Z,36.48
2022-09-27T01:42:13.470Z,36.46
2022-09-27T01:42:42.893Z,36.48
2022-09-27T01:43:12.910Z,36.52
2022-09-27T01:43:42.924Z,36.48
2022-09-27T01:44:12.950Z,36.50
2022-09-27T01:44:42.961Z,36.52
2022-09-27T01:45:12.979Z,36.55
2022-09-27T01:45:42.997Z,36.56
2022-09-27T01:46:13.123Z,36.59
2022-09-27T01:46:43.060Z,36.52
2022-09-27T01:47:13.081Z,36.55
2022-09-27T01:47:43.097Z,36.59
2022-09-27T01:48:13.113Z,36.52
2022-09-27T01:48:43.128Z,36.55
2022-09-27T01:49:13.248Z,36.55
2022-09-27T01:49:43.255Z,36.60
2022-09-27T01:50:13.269Z,36.53
2022-09-27T01:50:43.287Z,36.55
2022-09-27T01:51:13.310Z,36.52
2022-09-27T01:51:43.328Z,36.59
2022-09-27T01:52:13.347Z,36.52
2022-09-27T01:52:43.381Z,36.56
2022-09-27T01:53:13.400Z,36.57
2022-09-27T01:53:43.416Z,36.53
2022-09-27T01:54:13.432Z,36.50
2022-09-27T01:54:43.453Z,36.54
2022-09-27T01:55:13.466Z,36.55
2022-09-27T01:55:43.487Z,36.52
2022-09-27T01:56:13.503Z,36.57
2022-09-27T01:56:43.533Z,36.52
2022-09-27T01:57:13.546Z,36.49
2022-09-27T01:57:43.568Z,36.54
2022-09-27T01:58:13.580Z,36.47
2022-09-27T01:58:43.598Z,36.53
2022-09-27T01:59:13.676Z,36.51
2022-09-27T01:59:43.693Z,36.49
2022-09-27T02:00:13.710Z,36.49
2022-09-27T02:00:43.732Z,36.47
2022-09-27T02:01:13.870Z,36.50
2022-09-27T02:01:43.866Z,36.47
2022-09-27T02:02:13.962Z,36.45
2022-09-27T02:02:44.054Z,36.46
2022-09-27T02:03:14.071Z,36.47
2022-09-27T02:03:44.087Z,36.46
2022-09-27T02:04:14.109Z,36.42
2022-09-27T02:04:44.133Z,36.42
2022-09-27T02:05:14.151Z,36.42
2022-09-27T02:05:44.178Z,36.39
2022-09-27T02:06:14.192Z,36.33
2022-09-27T02:06:44.221Z,36.39
2022-09-27T02:07:14.237Z,36.38
2022-09-27T02:07:44.255Z,36.36
2022-09-27T02:08:14.274Z,36.36
2022-09-27T02:08:44.288Z,36.33
2022-09-27T02:09:14.332Z,36.32
2022-09-27T02:09:44.325Z,36.34
2022-09-27T02:10:14.342Z,36.33
2022-09-27T02:10:44.363Z,36.36
2022-09-27T02:11:14.375Z,36.34
2022-09-27T02:11:44.414Z,36.36
2022-09-27T02:12:14.441Z,36.31
2022-09-27T02:12:44.458Z,36.30
2022-09-27T02:13:14.473Z,36.33
2022-09-27T02:13:44.488Z,36.30
2022-09-27T02:14:14.511Z,36.31
2022-09-27T02:14:44.527Z,36.30
2022-09-27T02:15:14.551Z,36.33
2022-09-27T02:15:44.638Z,36.30
2022-09-27T02:16:14.756Z,36.30
2022-09-27T02:16:44.681Z,36.33
2022-09-27T02:17:14.712Z,36.28
2022-09-27T02:17:44.704Z,36.32
2022-09-27T02:18:14.719Z,36.31
2022-09-27T02:18:44.733Z,36.30
2022-09-27T02:19:14.976Z,36.30
2022-09-27T02:19:44.857Z,36.31
2022-09-27T02:20:14.881Z,36.27
2022-09-27T02:20:44.909Z,36.27
2022-09-27T02:21:14.917Z,36.33
2022-09-27T02:21:44.948Z,36.33
2022-09-27T02:22:14.966Z,36.30
2022-09-27T02:22:44.984Z,36.31
2022-09-27T02:23:15.004Z,36.32
2022-09-27T02:23:45.020Z,36.28
2022-09-27T02:24:15.041Z,36.27
2022-09-27T02:24:45.059Z,36.32
2022-09-27T02:25:15.076Z,36.28
2022-09-27T02:25:45.092Z,36.32
2022-09-27T02:26:15.110Z,36.31
2022-09-27T02:26:45.161Z,36.30
2022-09-27T02:27:15.179Z,36.28
2022-09-27T02:27:45.222Z,36.31
2022-09-27T02:28:15.251Z,36.29
2022-09-27T02:28:45.227Z,36.29
2022-09-27T02:29:15.517Z,36.35
2022-09-27T02:29:45.385Z,36.31
2022-09-27T02:30:15.497Z,36.34
2022-09-27T02:30:45.609Z,36.34
2022-09-27T02:31:15.761Z,36.34
2022-09-27T02:31:45.755Z,36.37
2022-09-27T02:32:15.868Z,36.41
2022-09-27T02:32:45.995Z,36.43
2022-09-27T02:33:16.077Z,36.37
2022-09-27T02:33:46.180Z,36.44
2022-09-27T02:34:16.287Z,36.41
2022-09-27T02:34:46.390Z,36.48
2022-09-27T02:35:16.494Z,36.41
2022-09-27T02:35:46.601Z,36.42
2022-09-27T02:36:16.711Z,36.44
2022-09-27T02:36:46.832Z,36.40
2022-09-27T02:37:16.935Z,36.47
2022-09-27T02:37:47.039Z,36.45
2022-09-27T02:38:17.144Z,36.48
2022-09-27T02:38:47.142Z,36.49
2022-09-27T02:39:17.352Z,36.48
2022-09-27T02:39:47.234Z,36.53
2022-09-27T02:40:17.276Z,36.54
2022-09-27T02:40:47.392Z,36.52
2022-09-27T02:41:17.417Z,36.53
2022-09-27T02:41:47.435Z,36.53
2022-09-27T02:42:17.452Z,36.54
2022-09-27T02:42:47.472Z,36.54
2022-09-27T02:43:17.493Z,36.53
2022-09-27T02:43:47.519Z,36.54
2022-09-27T02:44:17.533Z,36.54
2022-09-27T02:44:47.549Z,36.53
2022-09-27T02:45:17.566Z,36.53
2022-09-27T02:45:47.641Z,36.56
2022-09-27T02:46:17.756Z,36.54
2022-09-27T02:46:47.666Z,36.51
2022-09-27T02:47:17.687Z,36.51
2022-09-27T02:47:47.705Z,36.58
2022-09-27T02:48:17.748Z,36.54
2022-09-27T02:48:47.738Z,36.49
2022-09-27T02:49:17.756Z,36.51
2022-09-27T02:49:47.776Z,36.54
2022-09-27T02:50:17.793Z,36.49
2022-09-27T02:50:47.808Z,36.53
2022-09-27T02:51:17.822Z,36.53
2022-09-27T02:51:47.851Z,36.45
2022-09-27T02:52:17.872Z,36.44
2022-09-27T02:52:47.892Z,36.52
2022-09-27T02:53:17.907Z,36.47
2022-09-27T02:53:47.923Z,36.43
2022-09-27T02:54:17.938Z,36.47
2022-09-27T02:54:47.960Z,36.49
2022-09-27T02:55:17.981Z,36.47
2022-09-27T02:55:47.998Z,36.44
2022-09-27T02:56:18.019Z,36.40
2022-09-27T02:56:48.054Z,36.42
2022-09-27T02:57:18.071Z,36.38
2022-09-27T02:57:48.092Z,36.38
2022-09-27T02:58:18.114Z,36.42
2022-09-27T02:58:48.136Z,36.34
2022-09-27T02:59:18.152Z,36.36
2022-09-27T02:59:48.169Z,36.36
2022-09-27T03:00:18.194Z,36.37
2022-09-27T03:00:48.212Z,36.31
2022-09-27T03:01:18.340Z,36.36
2022-09-27T03:01:48.299Z,36.33
2022-09-27T03:02:18.420Z,36.35
2022-09-27T03:02:48.388Z,36.33
2022-09-27T03:03:18.410Z,36.34
2022-09-27T03:03:48.450Z,36.36
2022-09-27T03:04:18.454Z,36.34
2022-09-27T03:04:48.467Z,36.33
2022-09-27T03:05:18.482Z,36.30
2022-09-27T03:05:48.499Z,36.33
2022-09-27T03:06:18.518Z,36.29
2022-09-27T03:06:48.544Z,36.34
2022-09-27T03:07:18.562Z,36.33
2022-09-27T03:07:48.588Z,36.28
2022-09-27T03:08:18.609Z,36.30
2022-09-27T03:08:48.625Z,36.33
2022-09-27T03:09:18.645Z,36.25
2022-09-27T03:09:48.657Z,36.29
2022-09-27T03:10:18.690Z,36.34
2022-09-27T03:10:48.693Z,36.29
2022-09-27T03:11:18.714Z,36.26
2022-09-27T03:11:48.747Z,36.31
2022-09-27T03:12:18.761Z,36.33
2022-09-27T03:12:48.776Z,36.26
2022-09-27T03:13:18.791Z,36.32
2022-09-27T03:14:07.244Z,36.32
2022-09-27T03:14:18.848Z,36.29
2022-09-27T03:14:48.863Z,36.29
2022-09-27T03:15:18.880Z,36.34
2022-09-27T03:15:48.902Z,36.34
2022-09-27T03:16:18.946Z,36.34
2022-09-27T03:16:48.989Z,36.35
2022-09-27T03:17:19.012Z,36.37
2022-09-27T03:17:49.024Z,36.38
2022-09-27T03:18:19.040Z,36.38
2022-09-27T03:18:49.056Z,36.46
2022-09-27T03:19:19.103Z,36.39
2022-09-27T03:19:49.094Z,36.42
2022-09-27T03:20:19.119Z,36.45
2022-09-27T03:20:49.131Z,36.41
2022-09-27T03:21:19.149Z,36.43
2022-09-27T03:21:49.175Z,36.41
2022-09-27T03:22:19.199Z,36.42
2022-09-27T03:22:49.207Z,36.42
2022-09-27T03:23:19.231Z,36.42
2022-09-27T03:23:49.248Z,36.43
2022-09-27T03:24:19.272Z,36.38
2022-09-27T03:24:49.288Z,36.38
2022-09-27T03:25:19.303Z,36.39
2022-09-27T03:25:49.317Z,36.41
2022-09-27T03:26:19.337Z,36.43
2022-09-27T03:26:49.372Z,36.38
2022-09-27T03:27:19.387Z,36.37
2022-09-27T03:27:49.401Z,36.42
2022-09-27T03:28:19.418Z,36.39
2022-09-27T03:28:49.417Z,36.43
2022-09-27T03:29:19.520Z,36.39
2022-09-27T03:29:49.623Z,36.41
2022-09-27T03:30:19.730Z,36.43
2022-09-27T03:30:49.791Z,36.41
2022-09-27T03:31:19.761Z,36.38
2022-09-27T03:31:49.748Z,36.42
2022-09-27T03:32:19.861Z,36.40
2022-09-27T03:32:49.968Z,36.43
2022-09-27T03:33:20.078Z,36.38
2022-09-27T03:33:50.183Z,36.40
2022-09-27T03:34:20.293Z,36.35
2022-09-27T03:34:50.422Z,36.35
2022-09-27T03:35:20.505Z,36.42
2022-09-27T03:35:50.620Z,36.41
2022-09-27T03:36:20.733Z,36.42
2022-09-27T03:36:50.846Z,36.38
2022-09-27T03:37:20.949Z,36.38
2022-09-27T03:37:50.941Z,36.38
2022-09-27T03:38:21.051Z,36.45
2022-09-27T03:38:51.060Z,36.37
2022-09-27T03:39:21.076Z,36.40
2022-09-27T03:39:51.089Z,36.43
2022-09-27T03:40:21.156Z,36.40
2022-09-27T03:40:51.194Z,36.39
2022-09-27T03:41:21.220Z,36.44
2022-09-27T03:41:51.247Z,36.42
2022-09-27T03:42:21.262Z,36.42
2022-09-27T03:42:51.275Z,36.43
2022-09-27T03:43:21.294Z,36.46
2022-09-27T03:43:51.314Z,36.36
2022-09-27T03:44:21.330Z,36.40
2022-09-27T03:44:51.412Z,36.39
2022-09-27T03:45:21.415Z,36.37
2022-09-27T03:45:51.503Z,36.39
2022-09-27T03:46:21.577Z,36.40
2022-09-27T03:46:51.597Z,36.42
2022-09-27T03:47:21.612Z,36.34
2022-09-27T03:47:51.628Z,36.36
2022-09-27T03:48:27.149Z,36.40
2022-09-27T03:48:51.677Z,36.42
2022-09-27T03:49:21.695Z,36.40
2022-09-27T03:49:51.714Z,36.42
2022-09-27T03:50:21.751Z,36.44
2022-09-27T03:50:51.744Z,36.47
2022-09-27T03:51:21.785Z,36.53
2022-09-27T03:51:51.807Z,36.52
2022-09-27T03:52:21.821Z,36.47
2022-09-27T03:52:51.838Z,36.48
2022-09-27T03:53:21.852Z,36.50
2022-09-27T03:53:51.871Z,36.52
2022-09-27T03:54:21.892Z,36.56
2022-09-27T03:54:51.909Z,36.53
2022-09-27T03:55:21.932Z,36.56
2022-09-27T03:55:51.948Z,36.59
2022-09-27T03:56:21.986Z,36.60
2022-09-27T03:56:52.005Z,36.56
2022-09-27T03:57:22.021Z,36.55
2022-09-27T03:57:52.039Z,36.59
2022-09-27T03:58:22.052Z,36.59
2022-09-27T03:58:52.064Z,36.56
2022-09-27T03:59:22.083Z,36.62
2022-09-27T03:59:52.100Z,36.59
2022-09-27T04:00:22.121Z,36.60
2022-09-27T04:00:52.137Z,36.58
2022-09-27T04:01:22.240Z,36.63
2022-09-27T04:01:52.349Z,36.54
2022-09-27T04:02:22.385Z,36.60
2022-09-27T04:02:52.449Z,36.55
2022-09-27T04:03:22.381Z,36.55
2022-09-27T04:03:52.401Z,36.54
2022-09-27T04:04:22.413Z,36.59
2022-09-27T04:04:52.433Z,36.56
2022-09-27T04:05:22.448Z,36.62
2022-09-27T04:05:52.487Z,36.59
2022-09-27T04:06:22.504Z,36.62
2022-09-27T04:06:52.528Z,36.60
2022-09-27T04:07:22.545Z,36.52
2022-09-27T04:07:52.560Z,36.55
2022-09-27T04:08:22.594Z,36.58
2022-09-27T04:08:52.619Z,36.58
2022-09-27T04:09:22.630Z,36.54
2022-09-27T04:09:52.654Z,36.58
2022-09-27T04:10:22.671Z,36.55
2022-09-27T04:10:52.686Z,36.58
2022-09-27T04:11:22.718Z,36.58
2022-09-27T04:11:52.732Z,36.61
2022-09-27T04:12:22.751Z,36.59
2022-09-27T04:12:52.771Z,36.62
2022-09-27T04:13:22.788Z,36.60
2022-09-27T04:13:52.804Z,36.59
2022-09-27T04:14:22.817Z,36.65
2022-09-27T04:14:52.846Z,36.65
2022-09-27T04:15:22.864Z,36.58
2022-09-27T04:15:52.879Z,36.63
2022-09-27T04:16:22.951Z,36.60
2022-09-27T04:16:53.077Z,36.60
2022-09-27T04:17:23.084Z,36.57
2022-09-27T04:17:53.104Z,36.55
2022-09-27T04:18:23.116Z,36.53
2022-09-27T04:18:53.130Z,36.57
2022-09-27T04:19:23.161Z,36.52
2022-09-27T04:19:53.169Z,36.53
2022-09-27T04:20:23.184Z,36.46
2022-09-27T04:20:53.199Z,36.52
2022-09-27T04:21:23.251Z,36.53
2022-09-27T04:21:53.246Z,36.52
2022-09-27T04:22:23.261Z,36.48
2022-09-27T04:22:53.280Z,36.53
2022-09-27T04:23:27.633Z,36.54
2022-09-27T04:23:53.343Z,36.53
2022-09-27T04:24:23.357Z,36.45
2022-09-27T04:24:53.376Z,36.45
2022-09-27T04:25:23.394Z,36.41
2022-09-27T04:25:53.412Z,36.33
2022-09-27T04:26:23.440Z,36.33
2022-09-27T04:26:53.456Z,36.30
2022-09-27T04:27:23.477Z,36.27
2022-09-27T04:27:53.498Z,36.22
2022-09-27T04:28:23.517Z,36.29
2022-09-27T04:28:54.915Z,36.26
2022-09-27T04:29:23.617Z,36.34
2022-09-27T04:29:53.727Z,36.30
2022-09-27T04:30:23.834Z,36.28
2022-09-27T04:30:54.036Z,36.35
2022-09-27T04:31:24.185Z,36.34
2022-09-27T04:31:54.117Z,36.41
2022-09-27T04:32:24.150Z,36.39
2022-09-27T04:32:54.167Z,36.46
2022-09-27T04:33:24.191Z,36.51
2022-09-27T04:33:54.206Z,36.54
2022-09-27T04:34:24.212Z,36.58
2022-09-27T04:34:54.236Z,36.62
2022-09-27T04:35:24.237Z,36.64
2022-09-27T04:35:54.270Z,36.70
2022-09-27T04:36:24.314Z,36.70
2022-09-27T04:36:54.373Z,36.73
2022-09-27T04:37:24.386Z,36.69
2022-09-27T04:37:54.395Z,36.72
2022-09-27T04:38:24.412Z,36.77
2022-09-27T04:38:54.448Z,36.69
2022-09-27T04:39:24.535Z,36.73
2022-09-27T04:39:54.613Z,36.79
2022-09-27T04:40:24.718Z,36.76
2022-09-27T04:40:54.847Z,36.80
2022-09-27T04:41:24.813Z,36.81
2022-09-27T04:41:54.879Z,36.81
2022-09-27T04:42:24.924Z,36.81
2022-09-27T04:42:54.943Z,36.79
2022-09-27T04:43:24.963Z,36.85
2022-09-27T04:43:58.911Z,36.88
2022-09-27T04:44:25.018Z,36.90
2022-09-27T04:44:55.034Z,36.89
2022-09-27T04:45:25.056Z,36.91
2022-09-27T04:45:55.174Z,36.96
2022-09-27T04:46:25.260Z,36.91
2022-09-27T04:46:55.288Z,36.94
2022-09-27T04:47:25.301Z,36.96
2022-09-27T04:47:55.355Z,36.96
2022-09-27T04:48:25.396Z,36.91
2022-09-27T04:48:55.414Z,36.98
2022-09-27T04:49:25.433Z,36.94
2022-09-27T04:49:55.452Z,36.96
2022-09-27T04:50:25.528Z,37.02
2022-09-27T04:50:55.542Z,36.94
2022-09-27T04:51:25.564Z,36.97
2022-09-27T04:51:55.604Z,36.94
2022-09-27T04:52:25.697Z,37.01
2022-09-27T04:52:55.699Z,37.04
2022-09-27T04:53:25.714Z,37.03
2022-09-27T04:53:55.787Z,37.00
2022-09-27T04:54:25.727Z,37.00
2022-09-27T04:54:55.749Z,37.01
2022-09-27T04:55:25.773Z,37.04
2022-09-27T04:55:55.822Z,37.04
2022-09-27T04:56:25.880Z,37.13
2022-09-27T04:56:55.903Z,37.09
2022-09-27T04:57:25.949Z,37.09
2022-09-27T04:57:56.000Z,37.05
2022-09-27T04:58:26.037Z,37.07
2022-09-27T04:58:56.050Z,37.12
2022-09-27T04:59:26.108Z,37.15
2022-09-27T04:59:56.178Z,37.09
2022-09-27T05:00:26.195Z,37.11
2022-09-27T05:00:56.446Z,37.12
2022-09-27T05:01:26.330Z,37.14
2022-09-27T05:01:56.372Z,37.15
2022-09-27T05:02:26.392Z,37.14
2022-09-27T05:02:56.390Z,37.14
2022-09-27T05:03:26.404Z,37.11
2022-09-27T05:03:56.432Z,37.07
2022-09-27T05:04:26.482Z,37.06
2022-09-27T05:04:56.502Z,37.08
2022-09-27T05:05:26.520Z,37.11
2022-09-27T05:05:56.538Z,37.11
2022-09-27T05:06:26.565Z,37.11
2022-09-27T05:06:57.447Z,37.11
2022-09-27T05:07:26.634Z,37.13
2022-09-27T05:07:56.740Z,37.10
2022-09-27T05:08:26.688Z,37.10
2022-09-27T05:08:56.737Z,37.06
2022-09-27T05:09:26.756Z,37.03
2022-09-27T05:09:56.781Z,37.10
2022-09-27T05:10:26.795Z,37.06
2022-09-27T05:10:56.836Z,37.02
2022-09-27T05:11:26.848Z,36.98
2022-09-27T05:11:56.907Z,37.05
2022-09-27T05:12:26.929Z,37.02
2022-09-27T05:12:56.973Z,37.01
2022-09-27T05:13:27.038Z,37.03
2022-09-27T05:13:57.141Z,36.98
2022-09-27T05:14:27.132Z,36.98
2022-09-27T05:14:57.195Z,36.97
2022-09-27T05:15:27.215Z,36.99
2022-09-27T05:15:57.281Z,37.00
2022-09-27T05:16:30.849Z,36.97
2022-09-27T05:16:57.397Z,37.01
2022-09-27T05:17:27.461Z,37.00
2022-09-27T05:17:57.510Z,36.98
2022-09-27T05:18:27.547Z,37.01
2022-09-27T05:18:57.589Z,37.01
2022-09-27T05:19:27.611Z,37.03
2022-09-27T05:19:57.622Z,37.03
2022-09-27T05:20:27.648Z,37.10
2022-09-27T05:20:57.720Z,37.07
2022-09-27T05:21:27.785Z,37.07
2022-09-27T05:21:57.805Z,37.00
2022-09-27T05:22:27.854Z,37.00
2022-09-27T05:22:57.942Z,37.01
2022-09-27T05:23:27.921Z,36.99
2022-09-27T05:23:57.908Z,36.95
2022-09-27T05:24:27.927Z,36.97
2022-09-27T05:24:57.959Z,37.00
2022-09-27T05:25:27.979Z,36.99
2022-09-27T05:25:58.002Z,37.00
2022-09-27T05:26:28.142Z,37.02
2022-09-27T05:26:58.079Z,37.04
2022-09-27T05:27:28.103Z,37.04
2022-09-27T05:27:58.151Z,37.03
2022-09-27T05:28:28.244Z,37.00
2022-09-27T05:28:58.271Z,37.02
2022-09-27T05:29:28.373Z,37.01
2022-09-27T05:29:58.486Z,36.98
2022-09-27T05:30:28.645Z,36.99
2022-09-27T05:30:58.708Z,36.97
2022-09-27T05:31:28.728Z,36.96
2022-09-27T05:31:58.722Z,36.99
2022-09-27T05:32:28.773Z,36.94
2022-09-27T05:32:58.809Z,36.97
2022-09-27T05:33:28.830Z,36.98
2022-09-27T05:33:58.938Z,36.96
2022-09-27T05:34:29.051Z,36.92
2022-09-27T05:34:59.076Z,36.92
2022-09-27T05:35:29.104Z,36.97
2022-09-27T05:35:59.210Z,36.93
2022-09-27T05:36:29.322Z,36.93
2022-09-27T05:36:59.429Z,36.89
2022-09-27T05:37:29.532Z,36.89
2022-09-27T05:37:59.638Z,36.92
2022-09-27T05:38:29.746Z,36.90
2022-09-27T05:38:59.796Z,36.93
2022-09-27T05:39:29.860Z,36.92
2022-09-27T05:40:02.950Z,36.91
2022-09-27T05:40:40.720Z,36.93
2022-09-27T05:40:59.948Z,36.94
2022-09-27T05:41:30.173Z,36.94
2022-09-27T05:41:59.944Z,36.92
2022-09-27T05:42:29.968Z,36.96
2022-09-27T05:42:59.982Z,36.92
2022-09-27T05:43:30.003Z,36.93
2022-09-27T05:44:00.022Z,36.89
2022-09-27T05:44:30.030Z,36.89
2022-09-27T05:45:00.091Z,36.82
2022-09-27T05:45:30.188Z,36.85
2022-09-27T05:46:00.188Z,36.82
2022-09-27T05:46:30.341Z,36.84
2022-09-27T05:47:00.387Z,36.81
2022-09-27T05:47:30.479Z,36.84
2022-09-27T05:48:00.547Z,36.82
2022-09-27T05:48:30.561Z,36.84
2022-09-27T05:49:00.593Z,36.87
2022-09-27T05:49:30.612Z,36.89
2022-09-27T05:50:00.637Z,36.84
2022-09-27T05:50:30.650Z,36.81
2022-09-27T05:51:00.705Z,36.83
2022-09-27T05:51:30.783Z,36.74
2022-09-27T05:52:00.859Z,36.76
2022-09-27T05:52:30.877Z,36.75
2022-09-27T05:53:00.963Z,36.75
2022-09-27T05:53:30.892Z,36.84
2022-09-27T05:54:00.909Z,36.81
2022-09-27T05:54:30.957Z,36.81
2022-09-27T05:55:00.947Z,36.81
2022-09-27T05:55:30.968Z,36.81
2022-09-27T05:56:00.990Z,36.82
2022-09-27T05:56:31.139Z,36.85
2022-09-27T05:57:01.056Z,36.83
2022-09-27T05:57:31.076Z,36.84
2022-09-27T05:58:01.113Z,36.87
2022-09-27T05:58:31.196Z,36.90
2022-09-27T05:59:01.144Z,36.83
2022-09-27T05:59:31.201Z,36.81
2022-09-27T06:00:01.218Z,36.89
2022-09-27T06:00:31.238Z,36.91
2022-09-27T06:01:01.255Z,36.86
2022-09-27T06:01:31.311Z,36.89
2022-09-27T06:02:01.450Z,36.87
2022-09-27T06:02:31.475Z,36.90
2022-09-27T06:03:01.489Z,36.97
2022-09-27T06:03:31.414Z,37.01
2022-09-27T06:04:01.492Z,37.02
2022-09-27T06:04:31.593Z,37.02
2022-09-27T06:05:01.549Z,36.98
2022-09-27T06:05:31.564Z,37.01
2022-09-27T06:06:01.583Z,37.03
2022-09-27T06:06:31.608Z,37.02
2022-09-27T06:07:01.631Z,37.03
2022-09-27T06:07:31.658Z,36.98
2022-09-27T06:08:01.739Z,37.01
2022-09-27T06:08:31.690Z,37.03
2022-09-27T06:09:01.779Z,36.99
2022-09-27T06:09:31.816Z,36.96
2022-09-27T06:10:01.917Z,37.05
2022-09-27T06:10:31.847Z,36.99
2022-09-27T06:11:01.870Z,37.01
2022-09-27T06:11:31.901Z,37.02
2022-09-27T06:12:01.913Z,37.02
2022-09-27T06:12:31.928Z,37.02
2022-09-27T06:13:01.953Z,37.03
2022-09-27T06:13:32.019Z,37.02
2022-09-27T06:14:02.065Z,36.99
2022-09-27T06:14:32.135Z,36.98
2022-09-27T06:15:02.151Z,36.99
2022-09-27T06:15:32.183Z,37.00
2022-09-27T06:16:02.252Z,37.02
2022-09-27T06:16:32.507Z,36.99
2022-09-27T06:17:02.398Z,37.12
2022-09-27T06:17:32.429Z,37.11
2022-09-27T06:18:02.451Z,37.11
2022-09-27T06:18:32.467Z,37.24
2022-09-27T06:19:02.487Z,37.14
2022-09-27T06:19:32.511Z,37.14
2022-09-27T06:20:02.590Z,37.14
2022-09-27T06:20:32.706Z,37.22
2022-09-27T06:21:02.661Z,37.14
2022-09-27T06:21:32.707Z,37.18
2022-09-27T06:22:02.793Z,37.14
2022-09-27T06:22:32.746Z,37.15
2022-09-27T06:23:02.779Z,37.18
2022-09-27T06:23:32.811Z,37.22
2022-09-27T06:24:02.823Z,37.24
2022-09-27T06:24:32.826Z,37.19
2022-09-27T06:25:02.844Z,37.21
2022-09-27T06:25:32.946Z,37.22
2022-09-27T06:26:03.031Z,37.23
2022-09-27T06:26:33.104Z,37.18